Time;durP1;ratioP1;P1;durP2;ratioP2;P2;SDS_P1;SDS_P2;PMS_P1;PMS_P2;Temp;Humidity;BMP_temperature;BMP_pressure;BME280_temperature;BME280_humidity;BME280_pressure;Samples;Min_cycle;Max_cycle;Signal;HPM_P1;HPM_P2
2022/03/24 00:00:50;;;;;;;26.37;16.13;;;4.30;99.90;;;;;;5008997;28;20467;-72
2022/03/24 00:03:35;;;;;;;23.67;16.90;;;4.30;99.90;;;;;;5013056;28;20522;-72
2022/03/24 00:06:21;;;;;;;23.43;16.70;;;4.20;99.90;;;;;;5022738;28;21068;-72
2022/03/24 00:09:08;;;;;;;24.27;17.20;;;4.10;99.90;;;;;;5012312;28;20448;-72
2022/03/24 00:11:55;;;;;;;23.00;16.80;;;4.20;99.90;;;;;;5007865;28;21045;-72
2022/03/24 00:14:40;;;;;;;24.83;17.03;;;4.40;99.90;;;;;;5012247;28;20445;-72
2022/03/24 00:17:26;;;;;;;21.63;15.93;;;4.40;99.90;;;;;;5017264;28;20503;-72
2022/03/24 00:20:13;;;;;;;20.93;15.77;;;4.40;99.90;;;;;;5008135;28;20459;-72
2022/03/24 00:22:58;;;;;;;23.17;16.57;;;4.30;99.90;;;;;;5018000;28;20446;-72
2022/03/24 00:25:45;;;;;;;23.57;16.10;;;4.20;99.90;;;;;;5019538;28;20429;-72
2022/03/24 00:28:31;;;;;;;32.23;18.43;;;4.10;99.90;;;;;;5007778;28;20476;-71
2022/03/24 00:31:17;;;;;;;20.33;16.10;;;4.00;99.90;;;;;;5017391;28;20547;-72
2022/03/24 00:34:02;;;;;;;20.95;15.30;;;4.20;99.90;;;;;;5015350;28;20456;-72
2022/03/24 00:36:48;;;;;;;24.17;16.83;;;4.50;99.90;;;;;;5014141;28;20715;-72
2022/03/24 00:39:34;;;;;;;21.60;15.63;;;4.60;99.90;;;;;;5007193;28;20759;-72
2022/03/24 00:42:22;;;;;;;22.60;16.50;;;4.80;99.90;;;;;;5007661;28;20558;-72
2022/03/24 00:45:12;;;;;;;19.93;15.80;;;4.80;99.90;;;;;;5017015;28;20421;-72
2022/03/24 00:47:58;;;;;;;27.70;16.03;;;4.70;99.90;;;;;;5019087;28;20445;-72
2022/03/24 00:50:44;;;;;;;22.03;14.93;;;4.60;99.90;;;;;;5015752;28;20588;-72
2022/03/24 00:53:30;;;;;;;23.10;14.30;;;4.30;99.90;;;;;;5019672;28;20483;-72
2022/03/24 00:56:16;;;;;;;20.40;15.97;;;4.10;99.90;;;;;;5012135;28;20480;-72
2022/03/24 00:59:03;;;;;;;22.53;16.60;;;4.00;99.90;;;;;;5009019;28;20457;-72
2022/03/24 01:01:48;;;;;;;19.73;14.97;;;3.90;99.90;;;;;;5012474;28;20492;-72
2022/03/24 01:04:34;;;;;;;24.00;16.30;;;3.80;99.90;;;;;;5011144;28;20536;-72
2022/03/24 01:07:20;;;;;;;23.57;16.23;;;3.70;99.90;;;;;;5013040;28;20467;-72
2022/03/24 01:10:08;;;;;;;23.30;17.27;;;3.60;99.90;;;;;;5007127;28;20804;-72
2022/03/24 01:12:55;;;;;;;23.47;17.20;;;3.50;99.90;;;;;;5005118;28;20440;-72
2022/03/24 01:15:44;;;;;;;25.65;17.15;;;3.50;99.90;;;;;;5001690;28;20489;-72
2022/03/24 01:18:34;;;;;;;20.08;15.40;;;3.40;99.90;;;;;;4999011;28;20222;-72
2022/03/24 01:21:20;;;;;;;21.05;16.00;;;3.40;99.90;;;;;;5014922;28;20337;-72
2022/03/24 01:24:06;;;;;;;30.33;17.60;;;3.40;99.90;;;;;;5007924;28;20223;-72
2022/03/24 01:26:52;;;;;;;23.37;16.40;;;3.50;99.90;;;;;;5010021;28;20552;-72
2022/03/24 01:29:37;;;;;;;28.45;16.40;;;3.80;99.90;;;;;;5002053;28;20481;-72
2022/03/24 01:32:26;;;;;;;24.90;17.13;;;3.80;99.90;;;;;;5016760;28;20205;-72
2022/03/24 01:35:12;;;;;;;27.37;18.23;;;3.80;99.90;;;;;;5020236;28;20449;-72
2022/03/24 01:37:58;;;;;;;24.27;17.98;;;3.70;99.90;;;;;;5016417;28;20475;-72
2022/03/24 01:40:43;;;;;;;25.70;17.03;;;3.60;99.90;;;;;;5010872;28;20209;-72
2022/03/24 01:43:29;;;;;;;24.30;17.17;;;3.70;99.90;;;;;;5007452;28;20448;-72
2022/03/24 01:46:21;;;;;;;23.67;16.08;;;3.90;99.90;;;;;;5016748;28;20532;-72
2022/03/24 01:49:08;;;;;;;27.90;16.63;;;4.00;99.90;;;;;;5008113;28;20202;-72
2022/03/24 01:51:54;;;;;;;22.80;17.07;;;4.20;99.90;;;;;;5021293;28;20436;-72
2022/03/24 01:54:42;;;;;;;25.67;18.13;;;4.20;99.90;;;;;;5010531;28;20492;-72
2022/03/24 01:57:29;;;;;;;26.00;17.83;;;4.00;99.90;;;;;;5015738;28;20470;-72
2022/03/24 02:00:15;;;;;;;23.83;16.20;;;3.80;99.90;;;;;;5011401;28;20370;-72
2022/03/24 02:03:04;;;;;;;33.25;17.67;;;3.60;99.90;;;;;;5018277;28;20560;-72
2022/03/24 02:05:51;;;;;;;27.15;17.50;;;3.50;99.90;;;;;;5015925;28;20202;-72
2022/03/24 02:08:38;;;;;;;23.50;16.67;;;3.50;99.90;;;;;;5011781;28;20216;-72
2022/03/24 02:11:24;;;;;;;26.00;18.07;;;3.20;99.90;;;;;;5015845;28;20535;-72
2022/03/24 02:14:10;;;;;;;23.20;17.83;;;3.20;99.90;;;;;;5018614;28;20428;-72
2022/03/24 02:16:56;;;;;;;21.23;16.37;;;3.30;99.90;;;;;;5010165;28;21008;-71
2022/03/24 02:19:42;;;;;;;24.20;17.23;;;3.40;99.90;;;;;;5003962;28;20461;-72
2022/03/24 02:22:30;;;;;;;21.23;16.53;;;3.50;99.90;;;;;;5010249;28;20999;-72
2022/03/24 02:25:16;;;;;;;24.75;18.80;;;3.70;99.90;;;;;;5014788;28;20828;-72
2022/03/24 02:28:03;;;;;;;25.57;17.57;;;3.60;99.90;;;;;;5010466;28;20589;-72
2022/03/24 02:30:49;;;;;;;22.63;16.17;;;3.50;99.90;;;;;;5007931;28;20459;-72
2022/03/24 02:33:36;;;;;;;25.35;17.80;;;3.40;99.90;;;;;;5008772;28;20452;-72
2022/03/24 02:36:21;;;;;;;23.93;15.70;;;3.30;99.90;;;;;;5010924;28;20254;-72
2022/03/24 02:39:08;;;;;;;23.43;16.57;;;3.40;99.90;;;;;;5005450;28;21005;-72
2022/03/24 02:41:55;;;;;;;20.60;15.50;;;3.60;99.90;;;;;;5009901;28;20556;-72
2022/03/24 02:44:40;;;;;;;22.60;17.03;;;3.70;99.90;;;;;;5013879;28;20471;-72
2022/03/24 02:47:26;;;;;;;25.73;18.10;;;3.60;99.90;;;;;;5019972;28;21003;-72
2022/03/24 02:50:12;;;;;;;24.95;16.90;;;3.50;99.90;;;;;;5013481;28;20214;-72
2022/03/24 02:52:58;;;;;;;25.92;17.65;;;3.30;99.90;;;;;;5017296;28;20200;-72
2022/03/24 02:55:45;;;;;;;28.67;17.90;;;3.20;99.90;;;;;;5010621;28;20204;-72
2022/03/24 02:58:31;;;;;;;25.17;16.08;;;3.10;99.90;;;;;;5006152;28;20332;-72
2022/03/24 03:01:18;;;;;;;27.65;16.70;;;3.20;99.90;;;;;;5007815;28;20223;-72
2022/03/24 03:04:03;;;;;;;34.53;17.30;;;3.30;99.90;;;;;;5018452;28;20205;-72
2022/03/24 03:06:49;;;;;;;27.65;16.80;;;3.20;99.90;;;;;;5020444;28;20719;-72
2022/03/24 03:09:38;;;;;;;21.92;16.48;;;3.20;99.90;;;;;;5020984;28;20247;-72
2022/03/24 03:12:26;;;;;;;37.17;17.83;;;3.10;99.90;;;;;;5015332;28;20327;-72
2022/03/24 03:15:12;;;;;;;24.23;17.15;;;3.00;99.90;;;;;;5014018;28;20226;-72
2022/03/24 03:17:57;;;;;;;24.27;17.30;;;2.80;99.90;;;;;;5008204;28;20271;-72
2022/03/24 03:20:43;;;;;;;24.05;18.05;;;2.80;99.90;;;;;;5020913;28;20264;-72
2022/03/24 03:23:28;;;;;;;25.35;16.70;;;2.80;99.90;;;;;;5008506;28;20686;-72
2022/03/24 03:26:16;;;;;;;23.23;15.43;;;2.70;99.90;;;;;;5012665;28;20353;-71
2022/03/24 03:29:04;;;;;;;25.08;17.92;;;2.70;99.90;;;;;;5005611;28;20453;-72
2022/03/24 03:31:50;;;;;;;29.45;16.60;;;2.70;99.90;;;;;;5023019;28;20204;-72
2022/03/24 03:34:35;;;;;;;22.63;16.13;;;2.80;99.90;;;;;;5020751;28;20281;-72
2022/03/24 03:37:21;;;;;;;24.60;16.02;;;2.80;99.90;;;;;;5009527;28;20308;-72
2022/03/24 03:40:07;;;;;;;24.38;16.45;;;2.80;99.90;;;;;;5018357;28;20210;-72
2022/03/24 03:42:53;;;;;;;26.52;17.23;;;2.80;99.90;;;;;;5015440;28;20320;-72
2022/03/24 03:45:40;;;;;;;22.20;16.05;;;2.70;99.90;;;;;;5014706;28;20675;-72
2022/03/24 03:48:26;;;;;;;23.40;16.33;;;2.60;99.90;;;;;;5010624;28;20225;-72
2022/03/24 03:51:12;;;;;;;29.73;16.67;;;2.60;99.90;;;;;;5018938;28;20819;-72
2022/03/24 03:53:58;;;;;;;27.48;17.88;;;2.70;99.90;;;;;;5022979;28;20452;-72
2022/03/24 03:56:44;;;;;;;22.20;15.83;;;2.90;99.90;;;;;;5003363;28;20282;-72
2022/03/24 03:59:31;;;;;;;29.02;18.20;;;3.10;99.90;;;;;;5012685;28;20861;-72
2022/03/24 04:02:18;;;;;;;23.27;16.70;;;3.30;99.90;;;;;;5022883;28;20341;-72
2022/03/24 04:05:06;;;;;;;22.58;16.50;;;3.20;99.90;;;;;;5012700;28;20499;-72
2022/03/24 04:07:52;;;;;;;21.63;16.07;;;3.10;99.90;;;;;;5008055;28;20217;-72
2022/03/24 04:10:38;;;;;;;28.53;16.43;;;3.00;99.90;;;;;;5017484;28;20464;-72
2022/03/24 04:13:25;;;;;;;23.63;16.67;;;3.00;99.90;;;;;;5019182;28;20428;-72
2022/03/24 04:16:12;;;;;;;24.83;15.82;;;2.90;99.90;;;;;;5012143;28;20224;-72
2022/03/24 04:18:58;;;;;;;23.03;16.53;;;2.80;99.90;;;;;;5014737;28;20205;-72
2022/03/24 04:21:44;;;;;;;37.70;19.27;;;2.70;99.90;;;;;;5016198;28;20591;-72
2022/03/24 04:24:30;;;;;;;26.92;18.20;;;2.60;99.90;;;;;;5025475;28;20206;-72
2022/03/24 04:27:16;;;;;;;24.23;16.93;;;2.70;99.90;;;;;;5003233;28;20703;-72
2022/03/24 04:30:02;;;;;;;26.10;17.37;;;2.60;99.90;;;;;;5013750;28;20448;-72
2022/03/24 04:32:47;;;;;;;22.33;15.20;;;2.60;99.90;;;;;;5026629;28;20899;-72
2022/03/24 04:35:35;;;;;;;22.73;16.08;;;2.50;99.90;;;;;;5013981;28;20210;-72
2022/03/24 04:38:21;;;;;;;25.40;16.77;;;2.40;99.90;;;;;;5016251;28;20229;-72
2022/03/24 04:41:08;;;;;;;23.23;17.07;;;2.50;99.90;;;;;;5012862;28;20209;-72
2022/03/24 04:43:55;;;;;;;25.00;15.50;;;2.50;99.90;;;;;;5016205;28;20439;-71
2022/03/24 04:46:41;;;;;;;28.23;16.33;;;2.40;99.90;;;;;;5001789;28;20524;-72
2022/03/24 04:49:27;;;;;;;27.50;18.05;;;2.30;99.90;;;;;;5007146;28;20576;-72
2022/03/24 04:52:14;;;;;;;27.25;16.75;;;2.20;99.90;;;;;;5024316;28;20209;-71
2022/03/24 04:55:00;;;;;;;27.20;18.00;;;2.20;99.90;;;;;;5017877;28;20205;-72
2022/03/24 04:57:46;;;;;;;25.38;17.85;;;2.20;99.90;;;;;;5005731;28;20454;-72
2022/03/24 05:00:32;;;;;;;23.30;16.20;;;2.10;99.90;;;;;;5014526;28;20279;-72
2022/03/24 05:03:17;;;;;;;25.67;18.02;;;2.10;99.90;;;;;;5010342;28;20360;-72
2022/03/24 05:06:03;;;;;;;24.40;17.08;;;2.20;99.90;;;;;;5022831;28;20203;-72
2022/03/24 05:08:51;;;;;;;23.60;16.02;;;2.20;99.90;;;;;;5021176;28;20250;-71
2022/03/24 05:11:37;;;;;;;25.92;18.33;;;2.20;99.90;;;;;;5017560;28;20204;-72
2022/03/24 05:14:22;;;;;;;22.08;16.10;;;2.20;99.90;;;;;;5014248;28;20568;-72
2022/03/24 05:17:08;;;;;;;24.93;17.03;;;2.30;99.90;;;;;;5006608;28;20616;-72
2022/03/24 05:19:54;;;;;;;25.38;16.45;;;2.20;99.90;;;;;;5025566;28;20464;-72
2022/03/24 05:22:39;;;;;;;26.88;17.45;;;2.20;99.90;;;;;;5009360;28;20583;-72
2022/03/24 05:25:27;;;;;;;23.35;16.17;;;2.30;99.90;;;;;;5002016;28;20364;-72
2022/03/24 05:28:13;;;;;;;27.10;18.27;;;2.20;99.90;;;;;;5021802;28;20234;-72
2022/03/24 05:30:58;;;;;;;25.45;16.38;;;2.20;99.90;;;;;;5017059;28;20822;-72
2022/03/24 05:33:44;;;;;;;25.08;17.02;;;2.10;99.90;;;;;;5014492;28;20201;-72
2022/03/24 05:36:30;;;;;;;23.15;16.80;;;2.20;99.90;;;;;;5015696;28;20270;-72
2022/03/24 05:39:15;;;;;;;22.00;15.02;;;2.20;99.90;;;;;;5014906;28;20293;-72
2022/03/24 05:42:03;;;;;;;23.60;18.15;;;2.10;99.90;;;;;;5020915;28;20730;-72
2022/03/24 05:44:49;;;;;;;31.23;18.33;;;2.10;99.90;;;;;;5002286;28;20209;-72
2022/03/24 05:47:34;;;;;;;23.95;17.33;;;2.10;99.90;;;;;;5010913;28;20225;-72
2022/03/24 05:50:20;;;;;;;45.55;24.40;;;2.00;99.90;;;;;;5025262;28;20698;-72
2022/03/24 05:53:06;;;;;;;29.70;18.25;;;2.10;99.90;;;;;;5023734;28;20744;-72
2022/03/24 05:55:52;;;;;;;25.00;17.08;;;2.10;99.90;;;;;;5001326;28;20256;-72
2022/03/24 05:58:39;;;;;;;26.35;17.00;;;2.30;99.90;;;;;;5048813;23;20229;-70
2022/03/24 06:01:25;;;;;;;24.83;16.58;;;2.60;99.90;;;;;;5045862;28;20205;-71
2022/03/24 06:04:13;;;;;;;27.98;15.15;;;2.80;99.90;;;;;;5031871;28;20216;-70
2022/03/24 06:07:01;;;;;;;22.80;15.68;;;3.00;99.90;;;;;;5037371;28;20426;-72
2022/03/24 06:09:49;;;;;;;22.50;15.15;;;3.30;99.90;;;;;;5027794;28;20255;-73
2022/03/24 06:12:35;;;;;;;23.33;15.27;;;3.60;99.90;;;;;;5036887;28;20674;-72
2022/03/24 06:15:22;;;;;;;24.88;17.05;;;3.80;99.90;;;;;;5029098;28;20588;-73
2022/03/24 06:18:08;;;;;;;23.48;15.60;;;4.00;99.90;;;;;;5037666;28;20250;-73
2022/03/24 06:20:54;;;;;;;22.70;15.07;;;4.10;99.90;;;;;;5040697;28;20201;-74
2022/03/24 06:23:39;;;;;;;23.45;16.13;;;4.30;99.90;;;;;;5032598;28;20984;-74
2022/03/24 06:26:25;;;;;;;21.52;16.00;;;4.30;99.90;;;;;;5028373;28;20208;-71
2022/03/24 06:29:13;;;;;;;27.70;17.23;;;4.40;99.90;;;;;;5035323;28;20679;-71
2022/03/24 06:32:00;;;;;;;24.13;16.33;;;4.40;99.90;;;;;;5036932;28;20464;-71
2022/03/24 06:34:47;;;;;;;25.27;15.63;;;4.50;99.90;;;;;;5035051;28;20197;-71
2022/03/24 06:37:39;;;;;;;34.40;15.90;;;4.70;99.90;;;;;;5026229;28;20221;-71
2022/03/24 06:40:25;;;;;;;23.70;16.80;;;4.80;99.90;;;;;;5038302;28;20802;-71
2022/03/24 06:43:11;;;;;;;23.43;15.30;;;4.90;99.90;;;;;;5040476;28;21027;-71
2022/03/24 06:45:57;;;;;;;22.63;15.87;;;4.90;99.90;;;;;;5027403;28;20451;-71
2022/03/24 06:48:44;;;;;;;26.50;15.37;;;4.90;99.90;;;;;;5035567;28;20456;-71
2022/03/24 06:51:30;;;;;;;21.63;16.03;;;4.90;99.90;;;;;;5034146;28;20478;-71
2022/03/24 06:54:16;;;;;;;22.73;15.70;;;4.90;99.90;;;;;;5030328;28;20472;-71
2022/03/24 06:57:02;;;;;;;36.47;16.40;;;4.90;99.90;;;;;;5026828;28;20487;-71
2022/03/24 06:59:48;;;;;;;21.10;16.30;;;5.00;99.90;;;;;;5026043;28;20476;-71
2022/03/24 07:02:34;;;;;;;23.63;16.20;;;5.00;99.90;;;;;;5033369;28;20428;-71
2022/03/24 07:05:21;;;;;;;21.80;16.20;;;5.10;99.90;;;;;;5024231;28;20451;-72
2022/03/24 07:08:08;;;;;;;23.50;16.10;;;5.30;99.90;;;;;;5029130;28;20948;-72
2022/03/24 07:10:54;;;;;;;25.60;17.10;;;5.50;99.90;;;;;;5028473;28;20473;-72
2022/03/24 07:13:40;;;;;;;30.90;18.80;;;5.60;99.90;;;;;;5029817;28;20455;-73
2022/03/24 07:16:25;;;;;;;26.60;17.80;;;5.70;99.90;;;;;;5031763;28;21068;-72
2022/03/24 07:19:12;;;;;;;29.10;18.50;;;5.80;99.90;;;;;;5039427;28;20481;-72
2022/03/24 07:21:59;;;;;;;23.80;16.40;;;5.90;99.90;;;;;;5040097;28;20903;-72
2022/03/24 07:24:44;;;;;;;27.93;18.03;;;6.10;99.90;;;;;;5032249;28;20998;-72
2022/03/24 07:27:30;;;;;;;26.10;16.73;;;6.20;99.90;;;;;;5029413;28;20597;-73
2022/03/24 07:30:16;;;;;;;24.90;17.30;;;6.40;99.90;;;;;;5035923;28;20522;-73
2022/03/24 07:33:03;;;;;;;30.53;18.00;;;6.60;99.90;;;;;;5044449;28;20999;-72
2022/03/24 07:35:49;;;;;;;26.70;17.87;;;6.80;99.90;;;;;;5038353;28;20614;-73
2022/03/24 07:38:37;;;;;;;23.67;17.50;;;6.90;99.90;;;;;;5040069;28;21058;-71
2022/03/24 07:41:23;;;;;;;29.33;18.07;;;7.00;99.90;;;;;;5046580;28;20416;-72
2022/03/24 07:44:09;;;;;;;26.80;17.87;;;7.20;99.90;;;;;;5040746;28;20814;-71
2022/03/24 07:46:54;;;;;;;23.70;17.07;;;7.40;99.90;;;;;;5042296;28;20476;-71
2022/03/24 07:49:40;;;;;;;26.27;16.70;;;7.60;99.90;;;;;;5047994;28;20413;-71
2022/03/24 07:52:29;;;;;;;25.90;17.93;;;7.70;99.90;;;;;;5039807;28;20425;-71
2022/03/24 07:55:16;;;;;;;25.17;18.10;;;7.90;99.90;;;;;;5037103;28;20424;-71
2022/03/24 07:58:01;;;;;;;26.30;17.07;;;8.10;99.90;;;;;;5040640;28;20503;-71
2022/03/24 08:00:47;;;;;;;23.10;17.70;;;8.30;99.90;;;;;;5042281;28;20777;-71
2022/03/24 08:03:34;;;;;;;26.47;17.57;;;8.40;99.90;;;;;;5031709;28;20428;-71
2022/03/24 08:06:19;;;;;;;30.53;16.40;;;8.60;99.90;;;;;;5042146;28;20547;-71
2022/03/24 08:09:05;;;;;;;23.73;17.83;;;8.80;98.10;;;;;;5030685;28;20537;-71
2022/03/24 08:11:51;;;;;;;23.97;16.33;;;9.00;98.30;;;;;;5034954;28;20434;-71
2022/03/24 08:14:37;;;;;;;31.27;17.20;;;9.20;96.70;;;;;;5034023;28;20442;-71
2022/03/24 08:17:23;;;;;;;29.63;17.33;;;9.30;94.80;;;;;;5042868;28;20506;-71
2022/03/24 08:20:10;;;;;;;23.37;15.73;;;9.50;94.30;;;;;;5038381;28;20430;-71
2022/03/24 08:22:55;;;;;;;21.67;15.67;;;9.70;92.60;;;;;;5037152;28;20965;-71
2022/03/24 08:25:44;;;;;;;27.10;15.80;;;9.90;91.40;;;;;;5036496;28;20458;-71
2022/03/24 08:28:31;;;;;;;24.03;16.00;;;10.10;87.90;;;;;;5038966;28;20443;-71
2022/03/24 08:31:16;;;;;;;33.00;15.83;;;10.20;88.90;;;;;;5047144;28;20502;-71
2022/03/24 08:34:02;;;;;;;25.97;15.27;;;10.40;83.90;;;;;;5041674;28;20835;-71
2022/03/24 08:36:48;;;;;;;22.97;14.90;;;10.60;78.30;;;;;;5041610;28;20521;-71
2022/03/24 08:39:33;;;;;;;20.87;14.27;;;10.70;78.00;;;;;;5031994;28;20578;-72
2022/03/24 08:42:19;;;;;;;18.83;13.50;;;10.90;77.80;;;;;;5048227;28;20471;-71
2022/03/24 08:45:08;;;;;;;24.67;14.20;;;11.10;76.30;;;;;;5036545;28;20419;-71
2022/03/24 08:47:54;;;;;;;20.97;15.03;;;11.30;75.00;;;;;;5037694;28;20416;-71
2022/03/24 08:50:40;;;;;;;21.97;14.00;;;11.50;77.80;;;;;;5032221;28;20574;-71
2022/03/24 08:53:25;;;;;;;21.13;14.63;;;11.70;77.00;;;;;;5035261;28;20758;-71
2022/03/24 08:56:13;;;;;;;24.50;15.40;;;11.90;69.80;;;;;;5037932;28;20506;-71
2022/03/24 08:58:58;;;;;;;23.97;16.10;;;12.00;68.10;;;;;;5039811;28;20498;-71
2022/03/24 09:01:45;;;;;;;21.10;14.63;;;12.20;67.80;;;;;;5041224;28;20406;-71
2022/03/24 09:04:31;;;;;;;23.83;16.07;;;12.40;63.50;;;;;;5030821;28;20424;-71
2022/03/24 09:07:18;;;;;;;25.23;15.93;;;12.60;63.80;;;;;;5048568;28;20492;-71
2022/03/24 09:10:05;;;;;;;20.17;14.00;;;12.80;61.10;;;;;;5034718;28;20505;-71
2022/03/24 09:12:50;;;;;;;23.10;16.20;;;12.90;62.90;;;;;;5040186;28;20428;-71
2022/03/24 09:15:36;;;;;;;29.50;17.50;;;13.10;59.90;;;;;;5032339;28;20459;-72
2022/03/24 09:18:23;;;;;;;27.33;16.23;;;13.30;56.60;;;;;;5047880;28;20446;-72
2022/03/24 09:21:09;;;;;;;27.17;16.60;;;13.50;55.40;;;;;;5033353;28;20399;-71
2022/03/24 09:23:55;;;;;;;25.90;16.37;;;13.70;52.60;;;;;;5041030;28;20984;-72
2022/03/24 09:26:40;;;;;;;29.83;18.23;;;13.80;50.20;;;;;;5045952;28;20411;-72
2022/03/24 09:29:26;;;;;;;29.33;15.87;;;13.90;49.60;;;;;;5040094;28;20977;-72
2022/03/24 09:32:12;;;;;;;23.73;16.70;;;14.00;52.20;;;;;;5038943;28;20976;-72
2022/03/24 09:35:01;;;;;;;24.03;17.30;;;14.20;51.60;;;;;;5036785;28;20599;-72
2022/03/24 09:37:47;;;;;;;27.00;17.67;;;14.30;47.20;;;;;;5030543;28;20570;-72
2022/03/24 09:40:34;;;;;;;24.43;17.70;;;14.40;45.00;;;;;;5032228;28;20418;-72
2022/03/24 09:43:22;;;;;;;29.43;20.00;;;14.50;45.10;;;;;;5038107;28;20399;-72
2022/03/24 09:46:09;;;;;;;26.23;18.37;;;14.70;47.70;;;;;;5036666;28;20492;-72
2022/03/24 09:48:55;;;;;;;24.73;17.27;;;14.80;42.80;;;;;;5031545;28;20398;-72
2022/03/24 09:51:43;;;;;;;27.67;17.60;;;14.90;44.10;;;;;;5029342;28;20428;-72
2022/03/24 09:54:28;;;;;;;26.97;18.50;;;15.00;44.10;;;;;;5040424;28;20430;-72
2022/03/24 09:57:14;;;;;;;26.33;18.93;;;15.10;42.70;;;;;;5036129;28;20463;-72
2022/03/24 10:00:01;;;;;;;28.63;18.30;;;15.20;40.40;;;;;;5029556;28;20469;-72
2022/03/24 10:03:07;;;;;;;29.83;17.47;;;15.40;39.90;;;;;;5037828;28;20432;-71
2022/03/24 10:05:56;;;;;;;37.47;18.97;;;15.50;39.00;;;;;;5033293;28;20444;-72
2022/03/24 10:08:51;;;;;;;32.40;20.17;;;15.60;39.00;;;;;;5020394;28;20424;-72
2022/03/24 10:11:37;;;;;;;33.30;20.80;;;15.70;41.50;;;;;;5034449;28;20502;-72
2022/03/24 10:14:24;;;;;;;26.50;18.93;;;15.80;39.30;;;;;;5039127;28;20423;-72
2022/03/24 10:17:11;;;;;;;28.27;19.00;;;16.00;38.10;;;;;;5038172;28;20787;-72
2022/03/24 10:19:58;;;;;;;30.77;19.77;;;16.10;38.10;;;;;;5039402;28;20436;-72
2022/03/24 10:22:54;;;;;;;29.83;21.73;;;16.20;37.20;;;;;;5032954;28;20449;-72
2022/03/24 10:25:44;;;;;;;33.40;19.60;;;16.40;37.70;;;;;;5045131;28;20469;-72
2022/03/24 10:28:29;;;;;;;33.20;21.10;;;16.50;36.60;;;;;;5037781;28;20785;-72
2022/03/24 10:31:15;;;;;;;28.17;20.40;;;16.60;36.00;;;;;;5045673;28;20402;-72
2022/03/24 10:34:00;;;;;;;34.43;21.00;;;16.70;36.10;;;;;;5034668;28;20446;-72
2022/03/24 10:36:47;;;;;;;32.13;21.07;;;16.80;36.10;;;;;;5039158;28;21027;-72
2022/03/24 10:39:33;;;;;;;25.80;19.90;;;16.90;35.50;;;;;;5037995;28;20456;-72
2022/03/24 10:42:23;;;;;;;31.20;20.80;;;17.00;34.90;;;;;;5035263;28;20402;-72
2022/03/24 10:45:17;;;;;;;32.10;22.00;;;17.10;36.50;;;;;;5038591;28;20453;-72
2022/03/24 10:48:04;;;;;;;30.30;21.27;;;17.20;34.10;;;;;;5030934;28;20516;-72
2022/03/24 10:50:56;;;;;;;30.77;20.47;;;17.30;34.60;;;;;;5046977;28;20414;-72
2022/03/24 10:53:43;;;;;;;36.23;21.77;;;17.40;34.30;;;;;;5034217;28;20426;-72
2022/03/24 10:56:34;;;;;;;34.73;21.33;;;17.60;34.30;;;;;;5038504;28;20435;-72
2022/03/24 10:59:26;;;;;;;28.27;20.47;;;17.70;33.50;;;;;;5039272;28;20460;-72
2022/03/24 11:02:13;;;;;;;28.93;21.40;;;17.90;33.60;;;;;;5047811;28;20443;-72
2022/03/24 11:05:00;;;;;;;31.37;22.20;;;18.20;33.80;;;;;;5039873;28;20451;-72
2022/03/24 11:07:52;;;;;;;38.70;22.93;;;18.30;33.20;;;;;;5031267;28;20451;-72
2022/03/24 11:10:46;;;;;;;30.87;20.20;;;18.40;32.00;;;;;;5031481;28;20387;-72
2022/03/24 11:13:42;;;;;;;28.20;20.97;;;18.70;33.20;;;;;;5041854;28;20447;-72
2022/03/24 11:16:31;;;;;;;33.63;21.40;;;18.80;30.70;;;;;;5031955;28;20436;-72
2022/03/24 11:19:17;;;;;;;31.57;22.40;;;18.90;31.10;;;;;;5034548;28;20452;-72
2022/03/24 11:22:03;;;;;;;28.63;21.03;;;19.00;29.90;;;;;;5037004;28;20536;-72
2022/03/24 11:24:50;;;;;;;32.00;24.10;;;19.10;30.00;;;;;;5039375;28;20763;-72
2022/03/24 11:27:36;;;;;;;38.07;22.97;;;19.10;32.90;;;;;;5040529;28;20828;-72
2022/03/24 11:30:22;;;;;;;31.23;22.10;;;19.00;30.90;;;;;;5037775;28;20412;-72
2022/03/24 11:33:10;;;;;;;31.27;22.73;;;19.10;30.20;;;;;;5040838;28;20452;-72
2022/03/24 11:35:57;;;;;;;23.77;18.40;;;19.20;30.30;;;;;;5033461;28;20942;-72
2022/03/24 11:38:44;;;;;;;23.40;18.43;;;19.30;31.30;;;;;;5031114;28;21081;-72
2022/03/24 11:41:36;;;;;;;24.10;18.83;;;19.40;27.20;;;;;;5042830;28;20429;-72
2022/03/24 11:44:40;;;;;;;33.37;20.70;;;19.50;26.20;;;;;;5044998;28;20440;-72
2022/03/24 11:47:26;;;;;;;31.30;20.37;;;19.70;28.60;;;;;;5033785;28;20420;-72
2022/03/24 11:50:17;;;;;;;32.90;18.40;;;19.70;26.80;;;;;;5038830;28;20425;-72
2022/03/24 11:53:10;;;;;;;26.03;17.70;;;19.80;25.00;;;;;;5026576;28;20445;-72
2022/03/24 11:56:15;;;;;;;28.17;19.63;;;19.90;24.90;;;;;;5035307;28;20482;-72
2022/03/24 11:59:23;;;;;;;29.90;19.43;;;20.00;24.50;;;;;;5039426;28;20550;-72
2022/03/24 12:02:17;;;;;;;22.63;17.67;;;20.00;22.80;;;;;;5037845;28;20459;-71
2022/03/24 12:05:03;;;;;;;23.50;16.60;;;20.10;23.20;;;;;;5037256;28;20424;-71
2022/03/24 12:07:50;;;;;;;23.57;17.40;;;20.20;23.10;;;;;;5039469;28;20806;-72
2022/03/24 12:10:36;;;;;;;23.87;16.83;;;20.20;22.20;;;;;;5041451;28;20920;-71
2022/03/24 12:13:22;;;;;;;25.03;16.30;;;20.20;23.00;;;;;;5034417;28;20514;-72
2022/03/24 12:16:12;;;;;;;19.70;14.87;;;20.30;25.00;;;;;;5026919;28;20392;-72
2022/03/24 12:18:59;;;;;;;24.40;16.13;;;20.50;22.70;;;;;;5035060;28;20466;-72
2022/03/24 12:21:44;;;;;;;22.00;17.30;;;20.50;22.00;;;;;;5030659;28;21039;-71
2022/03/24 12:24:38;;;;;;;25.40;19.30;;;20.60;22.60;;;;;;5031655;28;20427;-72
2022/03/24 12:27:23;;;;;;;24.90;18.83;;;20.60;22.80;;;;;;5035754;28;20452;-71
2022/03/24 12:30:13;;;;;;;27.30;17.97;;;20.80;24.10;;;;;;5025415;28;20950;-71
2022/03/24 12:33:04;;;;;;;23.90;16.60;;;21.00;23.30;;;;;;5035126;28;20961;-70
2022/03/24 12:35:52;;;;;;;22.33;16.63;;;21.30;22.40;;;;;;5041586;28;20467;-71
2022/03/24 12:38:49;;;;;;;25.37;18.03;;;21.40;23.20;;;;;;5027638;28;20472;-71
2022/03/24 12:41:36;;;;;;;23.73;17.30;;;21.50;22.30;;;;;;5037105;28;20941;-70
2022/03/24 12:44:23;;;;;;;26.27;17.77;;;21.60;23.00;;;;;;5038733;28;20507;-71
2022/03/24 12:47:08;;;;;;;26.60;18.73;;;21.50;23.20;;;;;;5031377;28;20809;-70
2022/03/24 12:49:57;;;;;;;26.10;18.43;;;21.50;21.90;;;;;;5032893;28;20558;-70
2022/03/24 12:52:51;;;;;;;25.70;18.93;;;21.50;22.90;;;;;;5033094;28;20447;-71
2022/03/24 12:55:39;;;;;;;28.83;20.00;;;21.50;21.30;;;;;;5036952;28;20521;-71
2022/03/24 12:58:26;;;;;;;28.97;19.67;;;21.60;22.00;;;;;;5027384;28;20967;-71
2022/03/24 13:01:13;;;;;;;27.87;19.13;;;21.70;21.70;;;;;;5032951;28;20451;-72
2022/03/24 13:04:00;;;;;;;31.90;19.40;;;21.90;21.60;;;;;;5042328;28;20440;-71
2022/03/24 13:06:48;;;;;;;24.90;20.03;;;22.10;22.00;;;;;;5035737;28;20440;-71
2022/03/24 13:09:33;;;;;;;27.03;20.53;;;22.20;21.00;;;;;;5038791;28;20507;-71
2022/03/24 13:12:27;;;;;;;31.10;20.00;;;21.90;19.60;;;;;;5038313;28;20467;-71
2022/03/24 13:15:24;;;;;;;34.00;19.50;;;21.70;20.00;;;;;;5032872;28;20445;-72
2022/03/24 13:18:12;;;;;;;30.37;20.47;;;22.00;21.50;;;;;;5040529;28;20444;-72
2022/03/24 13:20:58;;;;;;;23.40;18.00;;;22.20;21.10;;;;;;5036188;28;20834;-72
2022/03/24 13:23:54;;;;;;;27.10;20.50;;;22.40;21.00;;;;;;5019752;28;20432;-72
2022/03/24 13:26:39;;;;;;;29.27;19.93;;;22.70;20.50;;;;;;5037972;28;20513;-72
2022/03/24 13:29:36;;;;;;;25.20;18.30;;;22.70;19.00;;;;;;5032906;28;20928;-72
2022/03/24 13:32:26;;;;;;;22.63;18.40;;;22.80;19.80;;;;;;5036779;28;20443;-72
2022/03/24 13:35:15;;;;;;;32.50;21.30;;;22.90;20.40;;;;;;5041723;28;20474;-72
2022/03/24 13:38:01;;;;;;;28.87;20.83;;;22.80;18.80;;;;;;5037280;28;20456;-72
2022/03/24 13:40:49;;;;;;;30.83;19.70;;;22.20;19.70;;;;;;5030927;28;20542;-72
2022/03/24 13:43:35;;;;;;;29.27;23.00;;;22.40;21.70;;;;;;5031025;28;20514;-72
2022/03/24 13:46:21;;;;;;;33.13;21.13;;;22.50;21.40;;;;;;5037352;28;20441;-71
2022/03/24 13:49:09;;;;;;;35.20;22.10;;;22.80;21.10;;;;;;5028900;28;20461;-72
2022/03/24 13:51:55;;;;;;;30.50;20.93;;;23.10;20.90;;;;;;5027570;28;20452;-72
2022/03/24 13:54:40;;;;;;;28.53;19.93;;;23.10;20.30;;;;;;5028230;28;20444;-72
2022/03/24 13:57:26;;;;;;;25.10;19.83;;;23.30;21.40;;;;;;5032246;28;20470;-72
2022/03/24 14:00:12;;;;;;;26.40;19.87;;;23.40;20.70;;;;;;5033201;28;20579;-72
2022/03/24 14:03:08;;;;;;;29.37;21.83;;;23.70;20.60;;;;;;5031145;28;20533;-71
2022/03/24 14:05:58;;;;;;;28.27;21.20;;;23.60;19.50;;;;;;5029889;28;20443;-72
2022/03/24 14:08:45;;;;;;;37.83;21.00;;;23.60;20.10;;;;;;5035689;28;20603;-72
2022/03/24 14:11:31;;;;;;;27.20;21.27;;;23.20;18.30;;;;;;5030629;28;20574;-72
2022/03/24 14:14:17;;;;;;;26.33;19.37;;;22.80;18.80;;;;;;5037295;28;20440;-71